Time;durP1;ratioP1;P1;durP2;ratioP2;P2;SDS_P1;SDS_P2;PMS_P1;PMS_P2;Temp;Humidity;BMP_temperature;BMP_pressure;BME280_temperature;BME280_humidity;BME280_pressure;Samples;Min_cycle;Max_cycle;Signal;HPM_P1;HPM_P2
2023/09/10 00:00:21;;;;;;;;;;;26.90;60.60;;;;;;5044864;28;43635;-78
2023/09/10 00:02:47;;;;;;;;;;;26.80;61.10;;;;;;5046200;28;43091;-77
2023/09/10 00:05:12;;;;;;;;;;;26.80;60.90;;;;;;5045422;28;42890;-85
2023/09/10 00:07:38;;;;;;;;;;;26.70;60.90;;;;;;5045907;28;42976;-79
2023/09/10 00:10:03;;;;;;;;;;;26.90;61.30;;;;;;5031786;28;43318;-79
2023/09/10 00:12:30;;;;;;;;;;;26.80;60.90;;;;;;5042052;28;43287;-90
2023/09/10 00:14:55;;;;;;;;;;;26.70;61.40;;;;;;5027210;28;44244;-81
2023/09/10 00:17:21;;;;;;;;;;;26.50;60.60;;;;;;5031998;28;43575;-79
2023/09/10 00:19:46;;;;;;;;;;;26.60;61.70;;;;;;5026077;28;43031;-79
2023/09/10 00:22:12;;;;;;;;;;;26.60;61.60;;;;;;5033650;28;43352;-78
2023/09/10 00:24:37;;;;;;;;;;;26.70;61.70;;;;;;5038765;28;42989;-83
2023/09/10 00:27:03;;;;;;;;;;;26.60;61.80;;;;;;5027512;28;43528;-79
2023/09/10 00:29:28;;;;;;;;;;;26.50;61.70;;;;;;5027587;28;42910;-78
2023/09/10 00:31:54;;;;;;;;;;;26.30;61.70;;;;;;5030589;28;43422;-86
2023/09/10 00:34:19;;;;;;;;;;;26.40;61.90;;;;;;5045326;28;42809;-88
2023/09/10 00:36:45;;;;;;;;;;;26.40;62.00;;;;;;5043806;28;43004;-78
2023/09/10 00:39:10;;;;;;;;;;;26.50;62.30;;;;;;5026033;28;43212;-83
2023/09/10 00:41:36;;;;;;;;;;;26.50;62.10;;;;;;5031813;28;42844;-77
2023/09/10 00:44:02;;;;;;;;;;;26.40;62.00;;;;;;5030738;28;42975;-88
2023/09/10 00:46:28;;;;;;;;;;;26.30;61.90;;;;;;5031755;28;43551;-77
2023/09/10 00:48:54;;;;;;;;;;;26.50;62.90;;;;;;5027469;28;43554;-77
2023/09/10 00:51:20;;;;;;;;;;;26.30;62.20;;;;;;5044319;28;43051;-78
2023/09/10 00:53:45;;;;;;;;;;;26.30;62.00;;;;;;5045176;28;42991;-78
2023/09/10 00:56:11;;;;;;;;;;;26.40;62.00;;;;;;5044859;28;42972;-83
2023/09/10 00:58:37;;;;;;;;;;;26.50;62.20;;;;;;5029532;28;42985;-77
2023/09/10 01:01:03;;;;;;;;;;;26.30;62.00;;;;;;5025063;28;43737;-79
2023/09/10 01:03:30;;;;;;;;;;;26.40;62.10;;;;;;5038253;28;43339;-77
2023/09/10 01:05:55;;;;;;;;;;;26.40;62.10;;;;;;5025156;28;42887;-78
2023/09/10 01:08:21;;;;;;;;;;;26.20;62.10;;;;;;5027058;28;43162;-78
2023/09/10 01:10:46;;;;;;;;;;;26.30;62.20;;;;;;5029861;28;43022;-77
2023/09/10 01:13:19;;;;;;;;;;;26.20;62.10;;;;;;5031448;28;42804;-77
2023/09/10 01:16:05;;;;;;;;;;;26.30;62.40;;;;;;5031723;28;43792;-87
2023/09/10 01:18:48;;;;;;;;;;;26.20;62.40;;;;;;5040889;28;43056;-77
2023/09/10 01:21:19;;;;;;;;;;;26.20;59.80;;;;;;5030481;28;43036;-77
2023/09/10 01:23:59;;;;;;;;;;;26.50;60.00;;;;;;5024921;28;43029;-77
2023/09/10 01:26:25;;;;;;;;;;;26.30;59.80;;;;;;5028144;28;43915;-91
2023/09/10 01:28:50;;;;;;;;;;;26.10;61.80;;;;;;5034303;28;42978;-77
2023/09/10 01:31:17;;;;;;;;;;;26.30;62.60;;;;;;5028443;28;43695;-78
2023/09/10 01:33:46;;;;;;;;;;;26.10;62.30;;;;;;5044615;28;42905;-77
2023/09/10 01:36:14;;;;;;;;;;;26.00;62.30;;;;;;5030569;28;44597;-77
2023/09/10 01:39:06;;;;;;;;;;;26.00;62.30;;;;;;5044175;28;42929;-78
2023/09/10 01:41:32;;;;;;;;;;;26.00;60.10;;;;;;5021364;28;43352;-77
2023/09/10 01:43:58;;;;;;;;;;;26.00;62.50;;;;;;5043716;28;42889;-78
2023/09/10 01:46:24;;;;;;;;;;;26.10;62.50;;;;;;5043804;28;42913;-77
2023/09/10 01:48:50;;;;;;;;;;;26.10;62.50;;;;;;5042807;28;42932;-84
2023/09/10 01:51:16;;;;;;;;;;;26.00;62.30;;;;;;5043256;28;43637;-78
2023/09/10 01:53:42;;;;;;;;;;;26.00;62.50;;;;;;5030107;28;42930;-77
2023/09/10 01:56:07;;;;;;;;;;;26.00;62.70;;;;;;5043609;28;43012;-77
2023/09/10 01:58:33;;;;;;;;;;;26.00;62.80;;;;;;5041367;28;42903;-78
2023/09/10 02:00:58;;;;;;;;;;;26.00;62.00;;;;;;5043573;28;43016;-77
2023/09/10 02:03:24;;;;;;;;;;;25.90;62.50;;;;;;5042775;28;43015;-78
2023/09/10 02:05:49;;;;;;;;;;;26.00;62.00;;;;;;5043676;28;43363;-85
2023/09/10 02:08:14;;;;;;;;;;;26.10;62.60;;;;;;5043612;28;42929;-80
2023/09/10 02:10:40;;;;;;;;;;;25.80;62.20;;;;;;5044106;28;43665;-77
2023/09/10 02:13:05;;;;;;;;;;;26.10;62.20;;;;;;5041724;28;42972;-79
2023/09/10 02:15:31;;;;;;;;;;;26.00;61.60;;;;;;5035576;28;42975;-86
2023/09/10 02:17:57;;;;;;;;;;;26.00;62.30;;;;;;5038178;28;42925;-79
2023/09/10 02:20:22;;;;;;;;;;;26.10;62.30;;;;;;5036153;28;42902;-78
2023/09/10 02:22:48;;;;;;;;;;;26.00;62.20;;;;;;5024199;28;42920;-77
2023/09/10 02:25:13;;;;;;;;;;;25.90;62.20;;;;;;5023712;28;43739;-78
2023/09/10 02:27:39;;;;;;;;;;;26.00;62.50;;;;;;5023983;28;42945;-81
2023/09/10 02:30:05;;;;;;;;;;;26.00;62.40;;;;;;5024386;28;43356;-86
2023/09/10 02:32:31;;;;;;;;;;;26.10;61.70;;;;;;5024240;28;43144;-77
2023/09/10 02:34:57;;;;;;;;;;;25.80;61.70;;;;;;5024118;28;43085;-77
2023/09/10 02:37:22;;;;;;;;;;;26.00;62.70;;;;;;5024447;28;42923;-81
2023/09/10 02:39:48;;;;;;;;;;;25.90;61.80;;;;;;5024561;28;43868;-79
2023/09/10 02:42:13;;;;;;;;;;;25.80;62.40;;;;;;5025252;28;42875;-78
2023/09/10 02:44:38;;;;;;;;;;;26.00;62.30;;;;;;5024216;28;42852;-82
2023/09/10 02:47:04;;;;;;;;;;;26.00;62.20;;;;;;5025164;28;42976;-79
2023/09/10 02:49:30;;;;;;;;;;;26.00;61.80;;;;;;5011263;28;43014;-78
2023/09/10 02:51:55;;;;;;;;;;;25.80;61.60;;;;;;5024366;28;43021;-78
2023/09/10 02:54:21;;;;;;;;;;;25.80;62.10;;;;;;5012408;28;43030;-77
2023/09/10 02:56:46;;;;;;;;;;;25.90;62.80;;;;;;5025175;28;42897;-79
2023/09/10 02:59:23;;;;;;;;;;;25.80;62.00;;;;;;5024359;28;42985;-77
2023/09/10 03:01:49;;;;;;;;;;;25.80;59.80;;;;;;5025698;28;43006;-80
2023/09/10 03:04:14;;;;;;;;;;;25.80;62.30;;;;;;5024540;28;42885;-81
2023/09/10 03:06:44;;;;;;;;;;;25.80;62.50;;;;;;5025001;28;42946;-91
2023/09/10 03:09:09;;;;;;;;;;;25.70;62.40;;;;;;5024162;28;43885;-79
2023/09/10 03:11:37;;;;;;;;;;;25.80;62.50;;;;;;5025264;28;42877;-77
2023/09/10 03:14:03;;;;;;;;;;;25.80;61.90;;;;;;5024918;28;43779;-87
2023/09/10 03:16:28;;;;;;;;;;;25.70;62.50;;;;;;5028344;28;42960;-82
2023/09/10 03:18:54;;;;;;;;;;;25.60;62.20;;;;;;5027423;28;42906;-77
2023/09/10 03:21:20;;;;;;;;;;;25.70;62.70;;;;;;5027720;28;43016;-79
2023/09/10 03:23:45;;;;;;;;;;;25.70;62.80;;;;;;5026441;28;44190;-83
2023/09/10 03:26:11;;;;;;;;;;;25.80;62.70;;;;;;5026029;28;42910;-78
2023/09/10 03:28:37;;;;;;;;;;;26.20;62.80;;;;;;5034605;28;43829;-81
2023/09/10 03:31:03;;;;;;;;;;;25.80;62.30;;;;;;5031368;28;42942;-79
2023/09/10 03:33:28;;;;;;;;;;;25.90;62.10;;;;;;5026130;28;44354;-78
2023/09/10 03:35:54;;;;;;;;;;;25.80;62.20;;;;;;5026467;28;42894;-79
2023/09/10 03:38:19;;;;;;;;;;;25.90;62.50;;;;;;5035029;28;43329;-78
2023/09/10 03:40:45;;;;;;;;;;;25.70;62.00;;;;;;5045499;28;43441;-90
2023/09/10 03:43:10;;;;;;;;;;;25.70;62.50;;;;;;5045340;28;43599;-79
2023/09/10 03:45:36;;;;;;;;;;;25.80;61.90;;;;;;5044941;28;43468;-77
2023/09/10 03:48:01;;;;;;;;;;;25.70;61.90;;;;;;5034112;28;43689;-78
2023/09/10 03:50:27;;;;;;;;;;;25.80;61.90;;;;;;5031726;28;43051;-77
2023/09/10 03:52:52;;;;;;;;;;;25.80;62.50;;;;;;5033784;28;42988;-77
2023/09/10 03:55:18;;;;;;;;;;;25.80;62.30;;;;;;5030686;28;42841;-76
2023/09/10 03:57:43;;;;;;;;;;;25.60;62.20;;;;;;5030476;28;42863;-77
2023/09/10 04:00:10;;;;;;;;;;;25.60;61.80;;;;;;5032139;28;42909;-77
2023/09/10 04:02:36;;;;;;;;;;;25.70;61.80;;;;;;5036537;28;42862;-77
2023/09/10 04:05:01;;;;;;;;;;;25.70;61.80;;;;;;5036362;28;42966;-81
2023/09/10 04:07:27;;;;;;;;;;;25.60;62.40;;;;;;5043111;28;42949;-79
2023/09/10 04:09:52;;;;;;;;;;;25.60;62.30;;;;;;5040824;28;43112;-78
2023/09/10 04:12:18;;;;;;;;;;;25.80;62.00;;;;;;5035887;28;43971;-78
2023/09/10 04:14:43;;;;;;;;;;;25.80;62.80;;;;;;5037964;28;42902;-78
2023/09/10 04:17:09;;;;;;;;;;;25.70;62.20;;;;;;5042912;28;43498;-78
2023/09/10 04:19:34;;;;;;;;;;;25.50;62.10;;;;;;5040485;28;43125;-77
2023/09/10 04:22:00;;;;;;;;;;;25.60;62.80;;;;;;5035283;28;43497;-77
2023/09/10 04:24:25;;;;;;;;;;;25.60;62.20;;;;;;5027094;28;42983;-76
2023/09/10 04:26:51;;;;;;;;;;;25.60;62.70;;;;;;5039323;28;42888;-77
2023/09/10 04:29:16;;;;;;;;;;;25.50;62.80;;;;;;5032709;28;42975;-78
2023/09/10 04:31:42;;;;;;;;;;;25.70;62.80;;;;;;5038588;28;42945;-79
2023/09/10 04:34:08;;;;;;;;;;;25.50;62.80;;;;;;5032340;28;42992;-79
2023/09/10 04:36:33;;;;;;;;;;;25.70;62.60;;;;;;5038247;28;43556;-77
2023/09/10 04:38:59;;;;;;;;;;;25.50;62.80;;;;;;5032143;28;42962;-79
2023/09/10 04:41:24;;;;;;;;;;;25.60;63.60;;;;;;5037978;28;43439;-78
2023/09/10 04:43:50;;;;;;;;;;;25.50;62.80;;;;;;5031213;28;42907;-77
2023/09/10 04:46:15;;;;;;;;;;;25.60;63.20;;;;;;5037856;28;43792;-78
2023/09/10 04:48:41;;;;;;;;;;;25.60;63.20;;;;;;5031510;28;43494;-78
2023/09/10 04:51:08;;;;;;;;;;;25.60;63.10;;;;;;5037081;28;43904;-91
2023/09/10 04:53:35;;;;;;;;;;;25.40;61.10;;;;;;5032048;28;42953;-77
2023/09/10 04:56:01;;;;;;;;;;;25.50;62.90;;;;;;5037403;28;43306;-78
2023/09/10 04:58:26;;;;;;;;;;;25.10;62.00;;;;;;5024851;28;43127;-86
2023/09/10 05:00:52;;;;;;;;;;;25.40;62.90;;;;;;5036465;28;43112;-78
2023/09/10 05:03:17;;;;;;;;;;;25.50;62.40;;;;;;5029927;28;43542;-76
2023/09/10 05:05:43;;;;;;;;;;;25.50;63.00;;;;;;5034556;28;43510;-77
2023/09/10 05:08:09;;;;;;;;;;;25.50;63.10;;;;;;5030436;28;43111;-79
2023/09/10 05:10:34;;;;;;;;;;;25.60;62.50;;;;;;5034996;28;43788;-88
2023/09/10 05:13:00;;;;;;;;;;;25.40;62.90;;;;;;5034489;28;42862;-77
2023/09/10 05:15:25;;;;;;;;;;;25.60;63.20;;;;;;5039903;28;43072;-78
2023/09/10 05:17:51;;;;;;;;;;;25.50;63.50;;;;;;5038371;28;42978;-77
2023/09/10 05:20:16;;;;;;;;;;;25.50;62.70;;;;;;5039877;28;43234;-77
2023/09/10 05:22:42;;;;;;;;;;;25.40;62.00;;;;;;5028925;28;42949;-76
2023/09/10 05:25:08;;;;;;;;;;;25.50;62.80;;;;;;5023875;28;43667;-83
2023/09/10 05:27:33;;;;;;;;;;;25.60;61.90;;;;;;5025062;28;42938;-86
2023/09/10 05:29:58;;;;;;;;;;;25.50;62.80;;;;;;5023691;28;42840;-78
2023/09/10 05:32:24;;;;;;;;;;;25.60;62.80;;;;;;5018050;28;42922;-78
2023/09/10 05:34:49;;;;;;;;;;;25.60;62.20;;;;;;5024732;28;43588;-76
2023/09/10 05:37:15;;;;;;;;;;;25.40;62.50;;;;;;5023764;28;42906;-83
2023/09/10 05:39:40;;;;;;;;;;;25.50;62.60;;;;;;5024916;28;42910;-78
2023/09/10 05:42:06;;;;;;;;;;;25.60;62.70;;;;;;5024659;28;43006;-78
2023/09/10 05:44:31;;;;;;;;;;;25.60;62.80;;;;;;5024573;28;43061;-77
2023/09/10 05:46:58;;;;;;;;;;;25.60;62.70;;;;;;5024462;28;43013;-78
2023/09/10 05:49:24;;;;;;;;;;;25.80;63.30;;;;;;5024655;28;43371;-84
2023/09/10 05:51:49;;;;;;;;;;;25.60;62.50;;;;;;5018218;28;43035;-84
2023/09/10 05:54:14;;;;;;;;;;;25.70;61.90;;;;;;5025889;28;42941;-82
2023/09/10 05:56:40;;;;;;;;;;;25.60;62.50;;;;;;5024178;28;43064;-84
2023/09/10 05:59:06;;;;;;;;;;;25.70;62.60;;;;;;5025947;28;43422;-77
2023/09/10 06:01:31;;;;;;;;;;;25.70;62.30;;;;;;5025414;28;42771;-78
2023/09/10 06:03:59;;;;;;;;;;;25.80;62.70;;;;;;5023247;28;43587;-77
2023/09/10 06:06:24;;;;;;;;;;;25.90;62.40;;;;;;5028743;28;43284;-83
2023/09/10 06:08:50;;;;;;;;;;;25.80;62.50;;;;;;5028573;28;43863;-88
2023/09/10 06:11:15;;;;;;;;;;;25.90;62.60;;;;;;5030850;28;43060;-78
2023/09/10 06:13:41;;;;;;;;;;;25.90;62.90;;;;;;5032555;28;42870;-79
2023/09/10 06:16:07;;;;;;;;;;;26.00;62.70;;;;;;5029323;28;43063;-78
2023/09/10 06:18:32;;;;;;;;;;;25.90;62.90;;;;;;5022048;28;43850;-89
2023/09/10 06:20:58;;;;;;;;;;;26.00;62.80;;;;;;5025890;28;42944;-78
2023/09/10 06:23:23;;;;;;;;;;;25.80;62.50;;;;;;5029912;28;42915;-78
2023/09/10 06:25:49;;;;;;;;;;;26.10;62.70;;;;;;5029891;28;42965;-82
2023/09/10 06:28:15;;;;;;;;;;;26.10;62.80;;;;;;5031274;28;43004;-82
2023/09/10 06:30:40;;;;;;;;;;;26.10;62.90;;;;;;5027535;28;42979;-77
2023/09/10 06:33:06;;;;;;;;;;;26.20;62.70;;;;;;5029817;28;43810;-82
2023/09/10 06:35:33;;;;;;;;;;;26.20;63.50;;;;;;5024855;28;42852;-83
2023/09/10 06:37:59;;;;;;;;;;;26.30;62.90;;;;;;5036698;28;43393;-79
2023/09/10 06:40:24;;;;;;;;;;;26.00;62.50;;;;;;5031813;28;43052;-83
2023/09/10 06:42:50;;;;;;;;;;;26.30;62.40;;;;;;5025070;28;43529;-82
2023/09/10 06:45:15;;;;;;;;;;;26.30;62.50;;;;;;5028295;28;42933;-81
2023/09/10 06:47:41;;;;;;;;;;;26.20;62.40;;;;;;5033171;28;44001;-80
2023/09/10 06:50:06;;;;;;;;;;;26.30;62.30;;;;;;5035918;28;42925;-82
2023/09/10 06:52:32;;;;;;;;;;;26.50;62.20;;;;;;5032291;28;43731;-79
2023/09/10 06:54:57;;;;;;;;;;;26.40;62.20;;;;;;5036509;28;43185;-81
2023/09/10 06:57:25;;;;;;;;;;;26.30;61.10;;;;;;5013789;28;63399;-80
2023/09/10 06:59:50;;;;;;;;;;;26.40;62.40;;;;;;5033278;28;43109;-83
2023/09/10 07:02:16;;;;;;;;;;;26.30;62.00;;;;;;5029406;28;43730;-81
2023/09/10 07:04:47;;;;;;;;;;;26.40;62.00;;;;;;5033515;28;43134;-82
2023/09/10 07:07:13;;;;;;;;;;;26.50;62.00;;;;;;5028341;28;43732;-79
2023/09/10 07:09:38;;;;;;;;;;;26.70;62.20;;;;;;5026427;28;43205;-80
2023/09/10 07:12:06;;;;;;;;;;;26.70;62.30;;;;;;5031138;28;43643;-80
2023/09/10 07:14:31;;;;;;;;;;;26.50;61.40;;;;;;5031202;28;43193;-79
2023/09/10 07:16:57;;;;;;;;;;;26.50;62.00;;;;;;5035496;28;43614;-81
2023/09/10 07:19:22;;;;;;;;;;;26.40;62.00;;;;;;5025952;28;42933;-80
2023/09/10 07:21:48;;;;;;;;;;;26.30;62.10;;;;;;5027413;28;42870;-80
2023/09/10 07:24:13;;;;;;;;;;;26.50;62.00;;;;;;5025365;28;43123;-82
2023/09/10 07:26:39;;;;;;;;;;;26.40;62.00;;;;;;5026402;28;42931;-81
2023/09/10 07:29:05;;;;;;;;;;;26.30;62.10;;;;;;5033807;28;43043;-80
2023/09/10 07:31:32;;;;;;;;;;;26.50;62.10;;;;;;5033453;28;43560;-81
2023/09/10 07:33:57;;;;;;;;;;;26.50;62.20;;;;;;5045967;28;43073;-81
2023/09/10 07:36:23;;;;;;;;;;;26.60;62.30;;;;;;5021436;28;44512;-80
2023/09/10 07:38:48;;;;;;;;;;;26.60;62.30;;;;;;5044433;28;43030;-85
2023/09/10 07:41:14;;;;;;;;;;;26.50;62.30;;;;;;5039260;28;44680;-80
2023/09/10 07:43:39;;;;;;;;;;;26.50;62.30;;;;;;5043414;28;43002;-84
2023/09/10 07:46:05;;;;;;;;;;;25.80;62.10;;;;;;5034116;28;43818;-80
2023/09/10 07:48:31;;;;;;;;;;;26.50;62.20;;;;;;5043705;28;42974;-84
2023/09/10 07:50:56;;;;;;;;;;;26.50;62.30;;;;;;5041058;28;42949;-80
2023/09/10 07:53:22;;;;;;;;;;;26.30;61.90;;;;;;5044509;28;43044;-79
2023/09/10 07:55:48;;;;;;;;;;;26.60;62.10;;;;;;5041586;28;44515;-85
2023/09/10 07:58:14;;;;;;;;;;;26.60;62.30;;;;;;5044821;28;42971;-80
2023/09/10 08:00:40;;;;;;;;;;;26.50;62.00;;;;;;5030617;28;43798;-85
2023/09/10 08:03:06;;;;;;;;;;;26.50;61.90;;;;;;5044868;28;42910;-84
2023/09/10 08:05:33;;;;;;;;;;;26.60;61.80;;;;;;5034158;28;43116;-79
2023/09/10 08:08:02;;;;;;;;;;;26.70;62.00;;;;;;5025226;28;42826;-79
2023/09/10 08:10:28;;;;;;;;;;;26.50;61.40;;;;;;5031724;28;43057;-84
2023/09/10 08:12:54;;;;;;;;;;;26.80;61.70;;;;;;5034203;28;43007;-82
2023/09/10 08:15:19;;;;;;;;;;;26.50;61.50;;;;;;5017770;28;45141;-80
2023/09/10 08:17:45;;;;;;;;;;;26.60;61.50;;;;;;5035716;28;42976;-82
2023/09/10 08:20:11;;;;;;;;;;;26.60;61.20;;;;;;5041763;28;42993;-87
2023/09/10 08:22:37;;;;;;;;;;;26.80;60.50;;;;;;5023261;28;42993;-85
2023/09/10 08:25:04;;;;;;;;;;;26.70;60.90;;;;;;5024216;28;43596;-81
2023/09/10 08:27:29;;;;;;;;;;;26.80;59.90;;;;;;5024651;28;42949;-80
2023/09/10 08:29:55;;;;;;;;;;;26.70;60.40;;;;;;5024692;28;42982;-79
2023/09/10 08:32:20;;;;;;;;;;;26.70;60.30;;;;;;5022790;28;43013;-82
2023/09/10 08:34:46;;;;;;;;;;;26.70;59.70;;;;;;5025692;28;44105;-79
2023/09/10 08:37:12;;;;;;;;;;;26.70;60.00;;;;;;5025380;28;42895;-83
2023/09/10 08:39:37;;;;;;;;;;;26.80;59.70;;;;;;5025430;28;43510;-79
2023/09/10 08:42:12;;;;;;;;;;;26.90;59.70;;;;;;5024485;28;43056;-79
2023/09/10 08:44:39;;;;;;;;;;;26.70;57.40;;;;;;5023860;28;43604;-84
2023/09/10 08:47:07;;;;;;;;;;;26.80;59.40;;;;;;5023699;28;43032;-83
2023/09/10 08:49:34;;;;;;;;;;;26.80;59.40;;;;;;5025237;28;43443;-81
2023/09/10 08:52:00;;;;;;;;;;;26.70;59.10;;;;;;5023096;28;43126;-84
2023/09/10 08:54:26;;;;;;;;;;;26.70;59.40;;;;;;5044814;28;43363;-84
2023/09/10 08:56:51;;;;;;;;;;;26.70;59.30;;;;;;5043969;28;43196;-79
2023/09/10 08:59:17;;;;;;;;;;;26.70;59.30;;;;;;5034092;28;43646;-82
2023/09/10 09:01:44;;;;;;;;;;;26.70;59.40;;;;;;5033476;28;42966;-84
2023/09/10 09:04:12;;;;;;;;;;;26.90;59.70;;;;;;5034845;28;43004;-79
2023/09/10 09:06:37;;;;;;;;;;;27.00;59.50;;;;;;5042041;28;42988;-84
2023/09/10 09:09:05;;;;;;;;;;;26.90;59.40;;;;;;5043706;28;43471;-82
2023/09/10 09:11:32;;;;;;;;;;;26.80;59.10;;;;;;5034239;28;43612;-81
2023/09/10 09:13:59;;;;;;;;;;;26.90;59.10;;;;;;5039416;28;43005;-83
2023/09/10 09:16:25;;;;;;;;;;;26.80;59.00;;;;;;5029727;28;43428;-79
2023/09/10 09:18:50;;;;;;;;;;;26.80;58.30;;;;;;5034240;28;42979;-83
2023/09/10 09:21:19;;;;;;;;;;;26.80;58.60;;;;;;5031113;28;43038;-79
2023/09/10 09:23:45;;;;;;;;;;;26.80;58.90;;;;;;5032481;28;42920;-82
2023/09/10 09:26:12;;;;;;;;;;;27.00;58.60;;;;;;5042490;28;42962;-79
2023/09/10 09:28:38;;;;;;;;;;;26.80;58.50;;;;;;5043855;28;43389;-83
2023/09/10 09:31:08;;;;;;;;;;;26.80;58.40;;;;;;5033970;28;44420;-83
2023/09/10 09:33:33;;;;;;;;;;;26.90;56.30;;;;;;5037921;28;43080;-84
2023/09/10 09:36:05;;;;;;;;;;;26.90;58.50;;;;;;5043077;28;43002;-84
2023/09/10 09:38:31;;;;;;;;;;;26.80;56.10;;;;;;5042971;28;43791;-83
2023/09/10 09:40:56;;;;;;;;;;;26.90;58.50;;;;;;5040797;28;43046;-86
2023/09/10 09:43:22;;;;;;;;;;;26.80;57.90;;;;;;5041483;28;43611;-87
2023/09/10 09:45:47;;;;;;;;;;;26.80;57.90;;;;;;5024859;28;42924;-86
2023/09/10 09:48:13;;;;;;;;;;;26.80;58.00;;;;;;5022222;28;43813;-87
2023/09/10 09:50:39;;;;;;;;;;;26.90;58.10;;;;;;5019748;28;43221;-84
2023/09/10 09:53:04;;;;;;;;;;;27.20;58.40;;;;;;5023746;28;43900;-85
2023/09/10 09:55:30;;;;;;;;;;;26.80;58.00;;;;;;5023340;28;42962;-85
2023/09/10 09:57:55;;;;;;;;;;;26.80;57.80;;;;;;5023636;28;43128;-88
2023/09/10 10:00:21;;;;;;;;;;;26.90;57.80;;;;;;5023530;28;42991;-82
2023/09/10 10:02:46;;;;;;;;;;;26.90;57.90;;;;;;5023390;28;43002;-82
2023/09/10 10:05:13;;;;;;;;;;;26.90;58.00;;;;;;5023743;28;43020;-81
2023/09/10 10:07:40;;;;;;;;;;;26.80;58.30;;;;;;5023989;28;43597;-82
2023/09/10 10:10:06;;;;;;;;;;;26.80;57.70;;;;;;5026091;28;43304;-81
2023/09/10 10:12:32;;;;;;;;;;;26.90;58.00;;;;;;5024221;28;43682;-81
2023/09/10 10:14:59;;;;;;;;;;;27.00;57.80;;;;;;5023972;28;42864;-81
2023/09/10 10:17:25;;;;;;;;;;;27.10;58.30;;;;;;5024032;28;43140;-81
2023/09/10 10:19:51;;;;;;;;;;;26.90;57.60;;;;;;5024364;28;42842;-81
2023/09/10 10:22:18;;;;;;;;;;;27.00;58.40;;;;;;5024847;28;43480;-81
2023/09/10 10:24:44;;;;;;;;;;;27.00;58.30;;;;;;5040457;28;42962;-81
2023/09/10 10:27:10;;;;;;;;;;;27.00;57.60;;;;;;5037105;28;43937;-82
2023/09/10 10:29:36;;;;;;;;;;;27.10;57.70;;;;;;5046716;28;43113;-81
2023/09/10 10:32:07;;;;;;;;;;;26.80;58.30;;;;;;5045499;28;44565;-81
2023/09/10 10:34:39;;;;;;;;;;;27.10;57.90;;;;;;5044527;28;42910;-81
2023/09/10 10:37:05;;;;;;;;;;;26.90;55.60;;;;;;5046966;28;43686;-81
2023/09/10 10:39:46;;;;;;;;;;;27.00;57.90;;;;;;5046390;28;42896;-81
2023/09/10 10:42:15;;;;;;;;;;;27.10;56.30;;;;;;5046356;28;43587;-81
2023/09/10 10:44:41;;;;;;;;;;;26.90;57.90;;;;;;5046675;28;43124;-81
2023/09/10 10:47:17;;;;;;;;;;;27.00;58.10;;;;;;5046397;28;43987;-82
2023/09/10 10:49:51;;;;;;;;;;;27.00;55.90;;;;;;5038263;28;42910;-81
2023/09/10 10:52:20;;;;;;;;;;;27.00;55.90;;;;;;5043110;28;43388;-81
2023/09/10 10:54:47;;;;;;;;;;;27.00;58.00;;;;;;5047455;28;42986;-81
2023/09/10 10:57:13;;;;;;;;;;;26.90;58.00;;;;;;5046579;28;42983;-81
2023/09/10 10:59:38;;;;;;;;;;;27.00;58.10;;;;;;5045367;28;42855;-81
2023/09/10 11:02:13;;;;;;;;;;;27.10;58.20;;;;;;5042380;28;42947;-81
2023/09/10 11:04:52;;;;;;;;;;;27.20;56.70;;;;;;5038410;28;42886;-81
2023/09/10 11:07:18;;;;;;;;;;;27.10;58.20;;;;;;5046378;28;43875;-81
2023/09/10 11:09:43;;;;;;;;;;;27.10;58.60;;;;;;5045499;28;42936;-81
2023/09/10 11:12:09;;;;;;;;;;;27.10;58.40;;;;;;5046395;28;43441;-80
2023/09/10 11:14:53;;;;;;;;;;;27.00;58.90;;;;;;5046685;28;42949;-81
2023/09/10 11:17:22;;;;;;;;;;;27.10;56.80;;;;;;5024758;28;43934;-81
2023/09/10 11:19:48;;;;;;;;;;;27.00;56.70;;;;;;5043559;28;43078;-81
2023/09/10 11:22:14;;;;;;;;;;;27.10;58.60;;;;;;5036521;28;43238;-81
2023/09/10 11:24:40;;;;;;;;;;;27.00;58.50;;;;;;5026093;28;43007;-81
2023/09/10 11:27:19;;;;;;;;;;;27.00;58.30;;;;;;5024866;28;44573;-81
2023/09/10 11:29:45;;;;;;;;;;;27.00;56.80;;;;;;5027244;28;42894;-82
2023/09/10 11:32:17;;;;;;;;;;;27.40;59.30;;;;;;5026899;28;43625;-81
2023/09/10 11:34:42;;;;;;;;;;;27.10;56.70;;;;;;5025903;28;43045;-81
2023/09/10 11:37:09;;;;;;;;;;;27.00;58.90;;;;;;5026651;28;43028;-81
2023/09/10 11:39:36;;;;;;;;;;;27.10;59.10;;;;;;5026352;28;43048;-80
2023/09/10 11:42:03;;;;;;;;;;;27.00;59.00;;;;;;5027099;28;43313;-81
2023/09/10 11:44:29;;;;;;;;;;;27.10;59.00;;;;;;5027399;28;42957;-81
2023/09/10 11:46:54;;;;;;;;;;;27.10;58.60;;;;;;5027374;28;43005;-81
2023/09/10 11:49:21;;;;;;;;;;;27.20;59.10;;;;;;5027374;28;43017;-81
2023/09/10 11:51:47;;;;;;;;;;;27.10;59.10;;;;;;5026361;28;42938;-81
2023/09/10 11:54:20;;;;;;;;;;;27.30;59.10;;;;;;5028104;28;43161;-81
2023/09/10 11:56:45;;;;;;;;;;;26.10;58.50;;;;;;5027220;28;44573;-80
2023/09/10 11:59:13;;;;;;;;;;;26.90;58.90;;;;;;5027013;28;42980;-82
2023/09/10 12:01:38;;;;;;;;;;;27.50;59.30;;;;;;5026326;28;44062;-80
2023/09/10 12:04:04;;;;;;;;;;;26.80;58.80;;;;;;5026700;28;43033;-80
2023/09/10 12:06:29;;;;;;;;;;;27.10;58.90;;;;;;5027096;28;43601;-81
2023/09/10 12:08:55;;;;;;;;;;;27.20;59.10;;;;;;5025992;28;43120;-81
2023/09/10 12:11:21;;;;;;;;;;;27.20;58.60;;;;;;5025342;28;43792;-79
2023/09/10 12:13:46;;;;;;;;;;;27.10;59.00;;;;;;5013381;28;43079;-81
2023/09/10 12:16:13;;;;;;;;;;;27.20;59.00;;;;;;5025194;28;42972;-81
2023/09/10 12:18:38;;;;;;;;;;;27.10;59.00;;;;;;5038903;28;43108;-81
2023/09/10 12:21:05;;;;;;;;;;;27.40;59.20;;;;;;5038908;28;42847;-81
2023/09/10 12:23:31;;;;;;;;;;;27.30;59.20;;;;;;5025113;28;43117;-81
2023/09/10 12:25:57;;;;;;;;;;;27.20;59.10;;;;;;5025133;28;43554;-81
2023/09/10 12:28:23;;;;;;;;;;;26.70;58.70;;;;;;5012446;28;43160;-82
2023/09/10 12:30:49;;;;;;;;;;;27.20;59.20;;;;;;5025651;28;42929;-81
2023/09/10 12:33:15;;;;;;;;;;;27.20;59.30;;;;;;5013359;28;42980;-81
2023/09/10 12:35:41;;;;;;;;;;;27.20;59.40;;;;;;5026211;28;43460;-81
2023/09/10 12:38:06;;;;;;;;;;;27.40;59.40;;;;;;5025788;28;42930;-81
2023/09/10 12:40:32;;;;;;;;;;;27.20;59.10;;;;;;5025730;28;43431;-81
2023/09/10 12:42:57;;;;;;;;;;;27.20;59.10;;;;;;5025560;28;42928;-81
2023/09/10 12:45:23;;;;;;;;;;;27.20;59.10;;;;;;5025412;28;43667;-81
2023/09/10 12:47:48;;;;;;;;;;;27.00;59.10;;;;;;5025426;28;43028;-81
2023/09/10 12:50:14;;;;;;;;;;;27.20;59.30;;;;;;5025285;28;43556;-80
2023/09/10 12:52:40;;;;;;;;;;;27.20;58.80;;;;;;5025266;28;42922;-81
2023/09/10 12:55:05;;;;;;;;;;;27.20;58.80;;;;;;5025349;28;43127;-79
2023/09/10 12:57:31;;;;;;;;;;;27.30;59.50;;;;;;5024591;28;44094;-81
2023/09/10 12:59:57;;;;;;;;;;;27.60;59.50;;;;;;5024759;28;42877;-81
2023/09/10 13:02:23;;;;;;;;;;;27.10;59.10;;;;;;5021448;28;42965;-79
2023/09/10 13:04:49;;;;;;;;;;;27.20;59.10;;;;;;5018959;28;42966;-80
2023/09/10 13:07:14;;;;;;;;;;;27.10;58.60;;;;;;5023362;28;42938;-79
2023/09/10 13:09:40;;;;;;;;;;;27.20;59.20;;;;;;5024814;28;43044;-84
2023/09/10 13:12:06;;;;;;;;;;;27.20;59.70;;;;;;5012912;28;42931;-78
2023/09/10 13:14:37;;;;;;;;;;;27.40;59.10;;;;;;5023470;28;43507;-85
2023/09/10 13:17:03;;;;;;;;;;;27.10;59.30;;;;;;5023225;28;42854;-78
2023/09/10 13:19:29;;;;;;;;;;;27.20;59.30;;;;;;5024881;28;43232;-80
2023/09/10 13:21:55;;;;;;;;;;;27.30;59.00;;;;;;5026145;28;43177;-78
2023/09/10 13:24:21;;;;;;;;;;;27.40;58.20;;;;;;5023272;28;43436;-79
2023/09/10 13:26:46;;;;;;;;;;;27.30;59.30;;;;;;5024605;28;42981;-78
2023/09/10 13:29:11;;;;;;;;;;;27.30;59.40;;;;;;5024964;28;43076;-78
2023/09/10 13:31:37;;;;;;;;;;;27.40;59.50;;;;;;5023559;28;43113;-78
2023/09/10 13:34:05;;;;;;;;;;;27.40;59.50;;;;;;5026364;28;43788;-81
2023/09/10 13:36:30;;;;;;;;;;;27.50;58.50;;;;;;5029864;28;42962;-85
2023/09/10 13:38:56;;;;;;;;;;;27.30;59.00;;;;;;5036756;28;44610;-87
2023/09/10 13:41:22;;;;;;;;;;;27.40;59.40;;;;;;5023939;28;43040;-86
2023/09/10 13:43:47;;;;;;;;;;;27.50;59.40;;;;;;5028941;28;43420;-84
2023/09/10 13:46:13;;;;;;;;;;;27.50;58.80;;;;;;5041268;28;42926;-85
2023/09/10 13:48:39;;;;;;;;;;;27.50;59.00;;;;;;5026910;28;44431;-78
2023/09/10 13:51:05;;;;;;;;;;;27.60;59.40;;;;;;5023530;28;42980;-78
2023/09/10 13:53:31;;;;;;;;;;;27.40;59.10;;;;;;5035852;28;43979;-81
2023/09/10 13:55:56;;;;;;;;;;;27.50;59.10;;;;;;5024907;28;42985;-78
2023/09/10 13:58:22;;;;;;;;;;;27.50;59.00;;;;;;5036138;28;43561;-85
2023/09/10 14:00:47;;;;;;;;;;;27.30;58.80;;;;;;5024029;28;42991;-78
2023/09/10 14:03:13;;;;;;;;;;;27.30;58.70;;;;;;5023452;28;42850;-79
2023/09/10 14:05:38;;;;;;;;;;;27.40;58.90;;;;;;5024726;28;42986;-81
2023/09/10 14:08:04;;;;;;;;;;;27.40;58.90;;;;;;5037479;28;43884;-85
2023/09/10 14:10:30;;;;;;;;;;;27.60;58.90;;;;;;5023660;28;42893;-82